Time;durP1;ratioP1;P1;durP2;ratioP2;P2;SDS_P1;SDS_P2;PMS_P1;PMS_P2;Temp;Humidity;BMP_temperature;BMP_pressure;BME280_temperature;BME280_humidity;BME280_pressure;Samples;Min_cycle;Max_cycle;Signal;HPM_P1;HPM_P2
2022/12/18 10:32:45;;;;;;;1.40;1.10;;;15.60;46.60;;;;;;10282333;28;69068;-75
2022/12/18 10:37:41;;;;;;;1.23;1.13;;;15.60;46.40;;;;;;10276738;28;20572;-75
2022/12/18 10:42:36;;;;;;;2.87;1.50;;;15.60;46.30;;;;;;10277888;28;20176;-74
2022/12/18 10:47:32;;;;;;;1.07;0.97;;;15.60;46.30;;;;;;10277762;28;20166;-75
2022/12/18 10:52:27;;;;;;;1.40;1.20;;;15.50;46.20;;;;;;10277402;28;20630;-75
2022/12/18 10:57:22;;;;;;;3.20;1.40;;;15.50;46.20;;;;;;10276799;28;20170;-77
2022/12/18 11:02:18;;;;;;;1.87;1.30;;;15.60;46.70;;;;;;10277567;28;20169;-73
2022/12/18 11:07:13;;;;;;;1.23;1.13;;;15.60;46.60;;;;;;10289786;28;20182;-72
2022/12/18 11:12:08;;;;;;;4.30;1.20;;;15.50;46.50;;;;;;10316231;28;20584;-70
2022/12/18 11:17:04;;;;;;;2.70;1.60;;;15.50;46.50;;;;;;10316492;28;20175;-71
2022/12/18 11:21:59;;;;;;;1.30;1.20;;;15.50;46.40;;;;;;10316807;28;20539;-71
2022/12/18 11:26:55;;;;;;;2.20;1.10;;;15.50;46.50;;;;;;10316607;28;20251;-71
2022/12/18 11:31:50;;;;;;;1.27;1.13;;;15.50;46.40;;;;;;10316948;28;20425;-71
2022/12/18 11:36:45;;;;;;;0.97;0.87;;;15.50;46.40;;;;;;10316188;28;20165;-71
2022/12/18 11:46:55;;;;;;;1.70;1.03;;;15.50;46.40;;;;;;10288562;28;20240;-72
2022/12/18 11:51:50;;;;;;;1.50;1.30;;;15.50;46.30;;;;;;10288853;28;20715;-71
2022/12/18 11:56:45;;;;;;;1.90;1.70;;;15.50;46.40;;;;;;10289098;28;20197;-71
2022/12/18 12:01:41;;;;;;;1.20;1.10;;;15.50;46.30;;;;;;10288905;28;20220;-71
2022/12/18 12:06:36;;;;;;;1.40;1.30;;;15.50;46.30;;;;;;10287492;28;20263;-72
2022/12/18 12:11:32;;;;;;;1.37;0.90;;;15.50;46.30;;;;;;10287683;28;20573;-71
2022/12/18 12:16:27;;;;;;;0.97;0.87;;;15.50;46.30;;;;;;10287666;28;20197;-72
2022/12/18 12:21:22;;;;;;;1.03;0.97;;;15.50;46.30;;;;;;10287064;28;20210;-72
2022/12/18 12:26:18;;;;;;;1.30;1.10;;;15.50;46.20;;;;;;10287504;28;20507;-71
2022/12/18 12:31:13;;;;;;;1.43;1.33;;;15.50;46.20;;;;;;10287509;28;20233;-70
2022/12/18 12:36:09;;;;;;;3.20;0.90;;;15.50;46.20;;;;;;10287106;28;20169;-71
2022/12/18 12:41:04;;;;;;;0.90;0.80;;;15.50;46.20;;;;;;10286807;28;20695;-71
2022/12/18 12:46:02;;;;;;;1.83;1.00;;;15.50;46.20;;;;;;10285076;28;20269;-71
2022/12/18 12:50:58;;;;;;;1.10;0.97;;;15.50;46.20;;;;;;10286016;28;20194;-71
2022/12/18 12:55:54;;;;;;;1.87;1.10;;;15.50;46.20;;;;;;10285153;28;20171;-75
2022/12/18 13:00:49;;;;;;;1.20;1.10;;;15.50;46.50;;;;;;10253483;28;77099;-75
2022/12/18 13:05:45;;;;;;;1.20;1.10;;;15.50;46.40;;;;;;10244957;28;20534;-77
2022/12/18 13:10:40;;;;;;;1.10;1.00;;;15.50;46.30;;;;;;10245094;28;20206;-75
2022/12/18 13:15:36;;;;;;;1.27;1.17;;;15.50;46.30;;;;;;10244607;28;20518;-71
2022/12/18 13:20:31;;;;;;;1.30;1.20;;;15.50;46.20;;;;;;10244877;28;20605;-73
2022/12/18 13:25:26;;;;;;;1.30;1.00;;;15.50;46.20;;;;;;10243601;28;20181;-73
2022/12/18 13:30:22;;;;;;;4.40;1.10;;;15.50;46.10;;;;;;10245116;28;20231;-71
2022/12/18 13:35:17;;;;;;;1.00;0.90;;;15.50;46.10;;;;;;10243440;28;20173;-73
2022/12/18 13:40:12;;;;;;;4.17;1.30;;;15.50;46.10;;;;;;10243854;28;20170;-77
2022/12/18 13:45:08;;;;;;;3.43;1.00;;;15.50;46.20;;;;;;10243311;28;20174;-75
2022/12/18 13:50:03;;;;;;;2.70;1.30;;;15.90;45.70;;;;;;10243478;28;20206;-75
2022/12/18 13:54:59;;;;;;;4.70;1.40;;;15.90;45.60;;;;;;10243657;28;20165;-73
2022/12/18 13:59:54;;;;;;;6.10;1.70;;;16.00;45.60;;;;;;10242946;28;20619;-74
2022/12/18 14:04:49;;;;;;;8.63;2.30;;;16.10;45.80;;;;;;10243051;28;20261;-74
2022/12/18 14:09:45;;;;;;;8.63;2.10;;;15.90;45.80;;;;;;10243120;28;20730;-73
2022/12/18 14:14:41;;;;;;;4.20;1.30;;;15.90;46.20;;;;;;10241152;28;20182;-74
2022/12/18 14:19:36;;;;;;;1.30;1.20;;;15.90;45.50;;;;;;10242496;28;20182;-72
2022/12/18 14:24:32;;;;;;;5.70;1.50;;;15.90;45.50;;;;;;10241993;28;20180;-75
2022/12/18 14:29:27;;;;;;;1.50;1.23;;;16.00;45.80;;;;;;10242001;28;20298;-71
2022/12/18 14:34:23;;;;;;;4.27;1.50;;;15.90;45.90;;;;;;10241780;28;20253;-72
2022/12/18 14:39:18;;;;;;;2.53;1.47;;;15.90;45.70;;;;;;10242303;28;20166;-75
2022/12/18 14:44:13;;;;;;;2.00;1.23;;;15.90;45.70;;;;;;10242176;28;20170;-75
2022/12/18 14:49:09;;;;;;;3.43;1.30;;;15.90;45.50;;;;;;10242064;28;20251;-75
2022/12/18 14:54:07;;;;;;;4.67;1.50;;;15.90;45.50;;;;;;10241466;28;20167;-75
2022/12/18 14:59:03;;;;;;;4.97;1.40;;;15.90;45.50;;;;;;10242185;28;20607;-75
2022/12/18 15:03:58;;;;;;;3.63;1.40;;;15.90;45.40;;;;;;10241871;28;20173;-75
2022/12/18 15:08:54;;;;;;;4.30;1.50;;;15.80;45.40;;;;;;10241844;28;20688;-74
2022/12/18 15:13:49;;;;;;;4.53;1.27;;;15.90;45.40;;;;;;10241762;28;20173;-74
2022/12/18 15:18:45;;;;;;;1.80;1.43;;;15.80;45.40;;;;;;10248112;28;20175;-73
2022/12/18 15:23:40;;;;;;;8.17;2.60;;;15.90;45.30;;;;;;10249364;28;20188;-72
2022/12/18 15:28:36;;;;;;;6.17;2.60;;;15.90;46.00;;;;;;10246910;28;20753;-73
2022/12/18 15:33:31;;;;;;;3.67;2.83;;;15.90;45.70;;;;;;10248219;28;20221;-72
2022/12/18 15:38:27;;;;;;;3.73;2.80;;;15.80;45.50;;;;;;10248365;28;20187;-71
2022/12/18 15:43:34;;;;;;;3.80;1.97;;;15.80;45.40;;;;;;10267194;28;94841;-76
2022/12/18 15:48:30;;;;;;;5.20;3.53;;;15.90;45.40;;;;;;10288412;28;20195;-74
2022/12/18 15:53:25;;;;;;;15.47;6.33;;;16.10;46.70;;;;;;10288753;28;20564;-70
2022/12/18 18:59:01;;;;;;;11.33;5.10;;;15.80;45.20;;;;;;10308675;27;20573;-81
2022/12/18 19:03:57;;;;;;;8.60;5.27;;;15.90;47.30;;;;;;10269260;28;20236;-81
2022/12/18 19:08:52;;;;;;;6.63;3.93;;;15.90;46.80;;;;;;10296807;28;20567;-81
2022/12/18 19:13:47;;;;;;;6.07;4.30;;;15.90;46.60;;;;;;10313363;28;20201;-81
2022/12/18 19:18:43;;;;;;;8.97;5.10;;;15.80;46.40;;;;;;10313326;28;20280;-81
2022/12/18 19:23:38;;;;;;;7.93;3.97;;;15.80;46.30;;;;;;10265236;28;20549;-80
2022/12/18 19:28:34;;;;;;;7.70;4.80;;;15.90;46.10;;;;;;10236540;28;20176;-81
2022/12/18 19:33:29;;;;;;;11.80;4.67;;;15.90;46.00;;;;;;10236324;28;20176;-80
2022/12/18 19:38:24;;;;;;;7.30;4.20;;;15.90;46.00;;;;;;10235566;28;20308;-80
2022/12/18 19:43:20;;;;;;;5.80;4.27;;;15.90;46.00;;;;;;10236114;28;20183;-80
2022/12/18 19:48:15;;;;;;;7.33;4.27;;;15.90;46.00;;;;;;10235811;28;20175;-81
2022/12/18 19:53:11;;;;;;;5.33;3.87;;;15.90;45.90;;;;;;10236046;28;20612;-79
2022/12/18 19:58:06;;;;;;;8.00;4.10;;;15.90;45.90;;;;;;10245392;28;20239;-81
2022/12/18 20:03:01;;;;;;;10.37;5.13;;;15.80;45.80;;;;;;10274435;28;20182;-75
2022/12/18 20:07:57;;;;;;;7.87;4.53;;;15.80;45.80;;;;;;10261521;28;20179;-76
2022/12/18 20:12:52;;;;;;;5.90;4.10;;;15.90;45.80;;;;;;10248219;28;20186;-74
2022/12/18 20:17:48;;;;;;;4.40;3.90;;;15.90;45.60;;;;;;10247644;28;20216;-74
2022/12/18 20:22:43;;;;;;;7.00;4.30;;;15.90;45.50;;;;;;10247640;28;20588;-75
2022/12/18 20:27:39;;;;;;;5.50;4.27;;;15.90;45.50;;;;;;10246858;28;20192;-74
2022/12/18 20:32:34;;;;;;;5.30;3.63;;;15.90;45.60;;;;;;10247308;28;20179;-75
2022/12/18 20:37:29;;;;;;;4.70;3.90;;;15.90;45.50;;;;;;10247116;28;20230;-74
2022/12/18 20:42:25;;;;;;;5.10;4.00;;;15.90;45.60;;;;;;10246309;28;20602;-75
2022/12/18 20:47:20;;;;;;;5.83;4.10;;;15.90;45.60;;;;;;10247059;28;20171;-74
2022/12/18 20:52:16;;;;;;;5.30;3.90;;;15.80;45.60;;;;;;10246240;28;20200;-74
2022/12/18 20:57:11;;;;;;;6.40;3.30;;;15.80;45.60;;;;;;10246688;28;20240;-74
2022/12/18 21:02:06;;;;;;;7.23;3.43;;;15.80;45.50;;;;;;10246011;28;20208;-70
2022/12/18 21:07:02;;;;;;;4.70;3.63;;;15.70;45.70;;;;;;10246202;28;20314;-78
2022/12/18 21:17:11;;;;;;;4.70;3.90;;;15.80;45.60;;;;;;10245501;28;20199;-78
2022/12/18 21:22:06;;;;;;;5.47;4.20;;;15.80;45.70;;;;;;10244337;28;20607;-78
2022/12/18 21:27:02;;;;;;;5.10;3.60;;;15.80;45.70;;;;;;10244493;28;20178;-78
2022/12/18 21:31:57;;;;;;;5.97;3.53;;;15.80;45.90;;;;;;10244773;28;20639;-78
2022/12/18 21:36:53;;;;;;;4.00;3.33;;;15.80;46.00;;;;;;10244888;28;20213;-78
2022/12/18 21:47:02;;;;;;;5.33;3.90;;;15.70;46.10;;;;;;10244384;28;20156;-77
2022/12/18 21:51:58;;;;;;;4.80;3.60;;;15.70;46.00;;;;;;10244068;28;20231;-77
2022/12/18 21:56:53;;;;;;;3.90;3.43;;;15.70;46.00;;;;;;10243514;28;20241;-78
2022/12/18 22:01:48;;;;;;;3.90;3.23;;;15.80;45.80;;;;;;10243745;28;20173;-78
2022/12/18 22:06:44;;;;;;;3.60;2.83;;;15.70;45.90;;;;;;10244071;28;20275;-78
2022/12/18 22:11:39;;;;;;;3.57;3.23;;;15.70;45.80;;;;;;10243439;28;20200;-78
2022/12/18 22:16:35;;;;;;;4.33;3.77;;;15.70;45.70;;;;;;10243592;28;20267;-78
2022/12/18 22:21:30;;;;;;;3.60;3.30;;;15.70;45.70;;;;;;10243242;28;20539;-78
2022/12/18 22:26:25;;;;;;;4.00;3.10;;;15.70;45.70;;;;;;10243258;28;20174;-78
2022/12/18 22:31:21;;;;;;;4.20;3.40;;;15.70;45.60;;;;;;10242510;28;20178;-78
2022/12/18 22:36:16;;;;;;;3.73;3.10;;;15.70;45.60;;;;;;10209121;28;20215;-78
2022/12/18 22:41:12;;;;;;;3.30;3.03;;;15.70;45.70;;;;;;10202424;28;20193;-78
2022/12/18 22:46:07;;;;;;;3.33;2.80;;;15.70;45.60;;;;;;10202722;28;20184;-74
2022/12/18 22:51:02;;;;;;;3.50;3.17;;;15.70;45.70;;;;;;10202128;28;20241;-75
2022/12/18 22:55:58;;;;;;;3.80;3.23;;;15.70;45.70;;;;;;10202887;28;20272;-76
2022/12/18 23:00:53;;;;;;;4.30;2.97;;;15.70;45.70;;;;;;10202344;28;20201;-76
2022/12/18 23:05:48;;;;;;;3.47;3.17;;;15.70;45.70;;;;;;10202295;28;20183;-76
2022/12/18 23:10:44;;;;;;;3.50;3.20;;;15.70;45.70;;;;;;10202103;28;20187;-76
2022/12/18 23:15:39;;;;;;;4.40;3.37;;;15.70;45.70;;;;;;10202315;28;20203;-76
2022/12/18 23:20:35;;;;;;;2.60;2.40;;;15.60;45.80;;;;;;10201838;28;20564;-75
2022/12/18 23:25:30;;;;;;;3.23;2.90;;;15.60;45.70;;;;;;10201342;28;20181;-74
2022/12/18 23:30:25;;;;;;;4.07;3.00;;;15.60;45.80;;;;;;10201653;28;20622;-75
2022/12/18 23:35:21;;;;;;;2.97;2.50;;;15.60;45.80;;;;;;10201429;28;20712;-82
2022/12/18 23:40:16;;;;;;;2.80;2.50;;;15.60;45.90;;;;;;10201685;28;20301;-81
2022/12/18 23:45:11;;;;;;;3.23;2.93;;;15.50;45.90;;;;;;10208052;28;20182;-80
2022/12/18 23:50:07;;;;;;;3.70;3.20;;;15.50;45.90;;;;;;10209009;28;20257;-78
2022/12/18 23:55:02;;;;;;;3.40;2.90;;;15.60;46.00;;;;;;10208240;28;20672;-77
2022/12/18 23:59:58;;;;;;;2.83;2.63;;;15.60;46.00;;;;;;10208622;28;20258;-75
